sensor_id;sensor_type;location;lat;lon;timestamp;P1;durP1;ratioP1;P2;durP2;ratioP2
79452;SDS011;68899;52.116;5.404;2024-02-15T00:00:15;14.77;;;5.45;;
79452;SDS011;68899;52.116;5.404;2024-02-15T00:02:43;11.85;;;4.57;;
79452;SDS011;68899;52.116;5.404;2024-02-15T00:05:11;12.95;;;5.30;;
79452;SDS011;68899;52.116;5.404;2024-02-15T00:07:38;15.05;;;4.78;;
79452;SDS011;68899;52.116;5.404;2024-02-15T00:10:05;10.70;;;4.82;;
79452;SDS011;68899;52.116;5.404;2024-02-15T00:12:34;10.18;;;6.07;;
79452;SDS011;68899;52.116;5.404;2024-02-15T00:15:01;12.57;;;5.13;;
79452;SDS011;68899;52.116;5.404;2024-02-15T00:17:28;10.48;;;4.32;;
79452;SDS011;68899;52.116;5.404;2024-02-15T00:19:58;12.70;;;5.53;;
79452;SDS011;68899;52.116;5.404;2024-02-15T00:22:26;9.70;;;4.82;;
79452;SDS011;68899;52.116;5.404;2024-02-15T00:24:52;10.00;;;4.85;;
79452;SDS011;68899;52.116;5.404;2024-02-15T00:27:19;12.13;;;5.68;;
79452;SDS011;68899;52.116;5.404;2024-02-15T00:29:47;10.20;;;4.97;;
79452;SDS011;68899;52.116;5.404;2024-02-15T00:32:14;11.68;;;6.32;;
79452;SDS011;68899;52.116;5.404;2024-02-15T00:34:40;11.45;;;5.28;;
79452;SDS011;68899;52.116;5.404;2024-02-15T00:37:08;12.18;;;5.32;;
79452;SDS011;68899;52.116;5.404;2024-02-15T00:39:35;10.65;;;4.57;;
79452;SDS011;68899;52.116;5.404;2024-02-15T00:42:03;10.55;;;4.85;;
79452;SDS011;68899;52.116;5.404;2024-02-15T00:44:32;10.77;;;5.30;;
79452;SDS011;68899;52.116;5.404;2024-02-15T00:46:59;10.60;;;3.85;;
79452;SDS011;68899;52.116;5.404;2024-02-15T00:49:26;11.25;;;4.35;;
79452;SDS011;68899;52.116;5.404;2024-02-15T00:51:54;8.52;;;3.92;;
79452;SDS011;68899;52.116;5.404;2024-02-15T00:54:20;11.65;;;4.60;;
79452;SDS011;68899;52.116;5.404;2024-02-15T00:56:48;11.30;;;4.47;;
79452;SDS011;68899;52.116;5.404;2024-02-15T00:59:16;8.05;;;3.70;;
79452;SDS011;68899;52.116;5.404;2024-02-15T01:01:44;10.13;;;4.63;;
79452;SDS011;68899;52.116;5.404;2024-02-15T01:04:12;10.68;;;4.10;;
79452;SDS011;68899;52.116;5.404;2024-02-15T01:06:39;9.38;;;3.90;;
79452;SDS011;68899;52.116;5.404;2024-02-15T01:09:06;10.57;;;4.20;;
79452;SDS011;68899;52.116;5.404;2024-02-15T01:11:35;8.32;;;4.25;;
79452;SDS011;68899;52.116;5.404;2024-02-15T01:14:03;10.90;;;4.35;;
79452;SDS011;68899;52.116;5.404;2024-02-15T01:16:29;8.57;;;3.65;;
79452;SDS011;68899;52.116;5.404;2024-02-15T01:18:56;9.18;;;5.13;;
79452;SDS011;68899;52.116;5.404;2024-02-15T01:21:22;10.32;;;5.15;;
79452;SDS011;68899;52.116;5.404;2024-02-15T01:23:49;8.07;;;3.70;;
79452;SDS011;68899;52.116;5.404;2024-02-15T01:26:16;11.18;;;5.07;;
79452;SDS011;68899;52.116;5.404;2024-02-15T01:28:42;10.20;;;4.85;;
79452;SDS011;68899;52.116;5.404;2024-02-15T01:31:10;9.85;;;5.38;;
79452;SDS011;68899;52.116;5.404;2024-02-15T01:33:37;12.30;;;5.15;;
79452;SDS011;68899;52.116;5.404;2024-02-15T01:36:04;13.18;;;5.88;;
79452;SDS011;68899;52.116;5.404;2024-02-15T01:38:32;11.10;;;5.60;;
79452;SDS011;68899;52.116;5.404;2024-02-15T01:40:58;14.48;;;6.70;;
79452;SDS011;68899;52.116;5.404;2024-02-15T01:43:25;15.13;;;6.78;;
79452;SDS011;68899;52.116;5.404;2024-02-15T01:45:51;12.68;;;7.10;;
79452;SDS011;68899;52.116;5.404;2024-02-15T01:48:18;15.63;;;8.00;;
79452;SDS011;68899;52.116;5.404;2024-02-15T01:50:45;16.00;;;8.25;;
79452;SDS011;68899;52.116;5.404;2024-02-15T01:53:12;16.75;;;7.78;;
79452;SDS011;68899;52.116;5.404;2024-02-15T01:55:39;16.55;;;9.25;;
79452;SDS011;68899;52.116;5.404;2024-02-15T01:58:06;19.13;;;8.48;;
79452;SDS011;68899;52.116;5.404;2024-02-15T02:00:33;17.13;;;10.40;;
79452;SDS011;68899;52.116;5.404;2024-02-15T02:03:03;16.83;;;7.75;;
79452;SDS011;68899;52.116;5.404;2024-02-15T02:05:31;18.52;;;7.65;;
79452;SDS011;68899;52.116;5.404;2024-02-15T02:07:58;15.73;;;8.38;;
79452;SDS011;68899;52.116;5.404;2024-02-15T02:10:27;18.42;;;8.35;;
79452;SDS011;68899;52.116;5.404;2024-02-15T02:13:01;16.45;;;8.02;;
79452;SDS011;68899;52.116;5.404;2024-02-15T02:15:29;19.17;;;9.00;;
79452;SDS011;68899;52.116;5.404;2024-02-15T02:18:00;16.13;;;8.38;;
79452;SDS011;68899;52.116;5.404;2024-02-15T02:20:27;16.98;;;8.38;;
79452;SDS011;68899;52.116;5.404;2024-02-15T02:22:54;14.55;;;7.55;;
79452;SDS011;68899;52.116;5.404;2024-02-15T02:25:42;17.25;;;8.05;;
79452;SDS011;68899;52.116;5.404;2024-02-15T02:28:09;14.07;;;7.38;;
79452;SDS011;68899;52.116;5.404;2024-02-15T02:30:36;15.25;;;7.47;;
79452;SDS011;68899;52.116;5.404;2024-02-15T02:33:03;15.27;;;6.93;;
79452;SDS011;68899;52.116;5.404;2024-02-15T02:35:33;14.73;;;6.82;;
79452;SDS011;68899;52.116;5.404;2024-02-15T02:38:00;16.80;;;8.07;;
79452;SDS011;68899;52.116;5.404;2024-02-15T02:40:28;14.82;;;7.03;;
79452;SDS011;68899;52.116;5.404;2024-02-15T02:42:56;13.95;;;6.53;;
79452;SDS011;68899;52.116;5.404;2024-02-15T02:45:25;12.63;;;6.93;;
79452;SDS011;68899;52.116;5.404;2024-02-15T02:47:52;13.35;;;6.43;;
79452;SDS011;68899;52.116;5.404;2024-02-15T02:50:20;14.25;;;7.15;;
79452;SDS011;68899;52.116;5.404;2024-02-15T02:52:47;15.63;;;6.80;;
79452;SDS011;68899;52.116;5.404;2024-02-15T02:55:15;14.25;;;6.95;;
79452;SDS011;68899;52.116;5.404;2024-02-15T02:57:42;13.35;;;6.45;;
79452;SDS011;68899;52.116;5.404;2024-02-15T03:00:16;13.63;;;5.75;;
79452;SDS011;68899;52.116;5.404;2024-02-15T03:02:44;14.35;;;6.13;;
79452;SDS011;68899;52.116;5.404;2024-02-15T03:05:12;12.60;;;5.78;;
79452;SDS011;68899;52.116;5.404;2024-02-15T03:07:39;14.25;;;6.70;;
79452;SDS011;68899;52.116;5.404;2024-02-15T03:10:07;11.63;;;5.43;;
79452;SDS011;68899;52.116;5.404;2024-02-15T03:12:38;13.10;;;5.47;;
79452;SDS011;68899;52.116;5.404;2024-02-15T03:15:05;10.50;;;5.93;;
79452;SDS011;68899;52.116;5.404;2024-02-15T03:17:41;17.05;;;6.00;;
79452;SDS011;68899;52.116;5.404;2024-02-15T03:20:09;13.48;;;5.20;;
79452;SDS011;68899;52.116;5.404;2024-02-15T03:22:38;11.60;;;5.65;;
79452;SDS011;68899;52.116;5.404;2024-02-15T03:25:05;11.02;;;6.80;;
79452;SDS011;68899;52.116;5.404;2024-02-15T03:27:35;12.43;;;5.50;;
79452;SDS011;68899;52.116;5.404;2024-02-15T03:30:06;11.45;;;6.13;;
79452;SDS011;68899;52.116;5.404;2024-02-15T03:32:33;15.90;;;5.90;;
79452;SDS011;68899;52.116;5.404;2024-02-15T03:34:59;13.25;;;5.60;;
79452;SDS011;68899;52.116;5.404;2024-02-15T03:37:27;14.15;;;6.05;;
79452;SDS011;68899;52.116;5.404;2024-02-15T03:39:53;14.68;;;5.63;;
79452;SDS011;68899;52.116;5.404;2024-02-15T03:42:20;14.18;;;5.50;;
79452;SDS011;68899;52.116;5.404;2024-02-15T03:44:47;10.20;;;5.30;;
79452;SDS011;68899;52.116;5.404;2024-02-15T03:47:14;11.13;;;4.50;;
79452;SDS011;68899;52.116;5.404;2024-02-15T03:49:41;12.65;;;5.15;;
79452;SDS011;68899;52.116;5.404;2024-02-15T03:52:08;10.20;;;5.32;;
79452;SDS011;68899;52.116;5.404;2024-02-15T03:54:38;11.07;;;5.18;;
79452;SDS011;68899;52.116;5.404;2024-02-15T03:57:04;9.63;;;4.50;;
79452;SDS011;68899;52.116;5.404;2024-02-15T03:59:33;10.75;;;4.43;;
79452;SDS011;68899;52.116;5.404;2024-02-15T04:02:02;13.65;;;5.68;;
79452;SDS011;68899;52.116;5.404;2024-02-15T04:04:29;15.98;;;5.47;;
79452;SDS011;68899;52.116;5.404;2024-02-15T04:06:57;9.98;;;4.65;;
79452;SDS011;68899;52.116;5.404;2024-02-15T04:09:24;12.82;;;4.47;;
79452;SDS011;68899;52.116;5.404;2024-02-15T04:11:51;12.02;;;4.88;;
79452;SDS011;68899;52.116;5.404;2024-02-15T04:14:19;11.15;;;4.47;;
79452;SDS011;68899;52.116;5.404;2024-02-15T04:16:46;13.35;;;5.25;;
79452;SDS011;68899;52.116;5.404;2024-02-15T04:19:12;11.98;;;4.70;;
79452;SDS011;68899;52.116;5.404;2024-02-15T04:21:40;11.65;;;4.22;;
79452;SDS011;68899;52.116;5.404;2024-02-15T04:24:06;7.93;;;4.13;;
79452;SDS011;68899;52.116;5.404;2024-02-15T04:26:33;11.48;;;4.57;;
79452;SDS011;68899;52.116;5.404;2024-02-15T04:28:59;13.45;;;4.75;;
79452;SDS011;68899;52.116;5.404;2024-02-15T04:31:26;13.30;;;4.70;;
79452;SDS011;68899;52.116;5.404;2024-02-15T04:33:53;7.13;;;3.85;;
79452;SDS011;68899;52.116;5.404;2024-02-15T04:36:21;10.25;;;4.68;;
79452;SDS011;68899;52.116;5.404;2024-02-15T04:38:51;11.77;;;4.30;;
79452;SDS011;68899;52.116;5.404;2024-02-15T04:41:19;11.32;;;4.75;;
79452;SDS011;68899;52.116;5.404;2024-02-15T04:43:46;10.35;;;4.40;;
79452;SDS011;68899;52.116;5.404;2024-02-15T04:46:13;10.50;;;4.15;;
79452;SDS011;68899;52.116;5.404;2024-02-15T04:48:41;10.27;;;4.00;;
79452;SDS011;68899;52.116;5.404;2024-02-15T04:51:10;11.13;;;4.43;;
79452;SDS011;68899;52.116;5.404;2024-02-15T04:53:37;10.38;;;4.13;;
79452;SDS011;68899;52.116;5.404;2024-02-15T04:56:05;9.48;;;4.30;;
79452;SDS011;68899;52.116;5.404;2024-02-15T04:58:39;8.00;;;3.63;;
79452;SDS011;68899;52.116;5.404;2024-02-15T05:03:43;8.38;;;3.35;;
79452;SDS011;68899;52.116;5.404;2024-02-15T05:06:10;9.57;;;3.85;;
79452;SDS011;68899;52.116;5.404;2024-02-15T05:08:39;9.57;;;4.20;;
79452;SDS011;68899;52.116;5.404;2024-02-15T05:11:09;10.15;;;4.63;;
79452;SDS011;68899;52.116;5.404;2024-02-15T05:13:45;11.13;;;4.57;;
79452;SDS011;68899;52.116;5.404;2024-02-15T05:16:12;11.57;;;4.20;;
79452;SDS011;68899;52.116;5.404;2024-02-15T05:18:39;10.07;;;4.75;;
79452;SDS011;68899;52.116;5.404;2024-02-15T05:21:08;10.30;;;4.53;;
79452;SDS011;68899;52.116;5.404;2024-02-15T05:23:38;10.50;;;4.57;;
79452;SDS011;68899;52.116;5.404;2024-02-15T05:26:08;7.57;;;4.10;;
79452;SDS011;68899;52.116;5.404;2024-02-15T05:28:35;11.90;;;4.20;;
79452;SDS011;68899;52.116;5.404;2024-02-15T05:31:10;11.20;;;4.18;;
79452;SDS011;68899;52.116;5.404;2024-02-15T05:33:43;11.02;;;5.00;;
79452;SDS011;68899;52.116;5.404;2024-02-15T05:36:11;11.00;;;5.43;;
79452;SDS011;68899;52.116;5.404;2024-02-15T05:38:38;10.07;;;4.68;;
79452;SDS011;68899;52.116;5.404;2024-02-15T05:41:06;9.88;;;5.28;;
79452;SDS011;68899;52.116;5.404;2024-02-15T05:43:34;9.90;;;4.82;;
79452;SDS011;68899;52.116;5.404;2024-02-15T05:46:03;9.10;;;5.05;;
79452;SDS011;68899;52.116;5.404;2024-02-15T05:48:30;12.07;;;5.15;;
79452;SDS011;68899;52.116;5.404;2024-02-15T05:50:57;12.68;;;6.68;;
79452;SDS011;68899;52.116;5.404;2024-02-15T05:53:25;9.35;;;4.78;;
79452;SDS011;68899;52.116;5.404;2024-02-15T05:55:51;10.13;;;4.70;;
79452;SDS011;68899;52.116;5.404;2024-02-15T05:58:18;13.20;;;4.38;;
79452;SDS011;68899;52.116;5.404;2024-02-15T06:00:44;8.98;;;4.55;;
79452;SDS011;68899;52.116;5.404;2024-02-15T06:03:12;8.98;;;4.35;;
79452;SDS011;68899;52.116;5.404;2024-02-15T06:05:39;11.35;;;4.60;;
79452;SDS011;68899;52.116;5.404;2024-02-15T06:08:06;9.25;;;4.35;;
79452;SDS011;68899;52.116;5.404;2024-02-15T06:10:33;9.43;;;6.10;;
79452;SDS011;68899;52.116;5.404;2024-02-15T06:13:00;9.35;;;4.68;;
79452;SDS011;68899;52.116;5.404;2024-02-15T06:15:26;10.32;;;5.03;;
79452;SDS011;68899;52.116;5.404;2024-02-15T06:17:53;9.35;;;4.32;;
79452;SDS011;68899;52.116;5.404;2024-02-15T06:20:20;7.97;;;4.22;;
79452;SDS011;68899;52.116;5.404;2024-02-15T06:22:47;9.25;;;5.00;;
79452;SDS011;68899;52.116;5.404;2024-02-15T06:25:14;8.30;;;4.25;;
79452;SDS011;68899;52.116;5.404;2024-02-15T06:27:48;15.50;;;4.97;;
79452;SDS011;68899;52.116;5.404;2024-02-15T06:30:17;11.27;;;5.03;;
79452;SDS011;68899;52.116;5.404;2024-02-15T06:33:02;8.90;;;4.47;;
79452;SDS011;68899;52.116;5.404;2024-02-15T06:35:48;11.02;;;5.10;;
79452;SDS011;68899;52.116;5.404;2024-02-15T06:38:33;9.30;;;4.97;;
79452;SDS011;68899;52.116;5.404;2024-02-15T06:41:18;10.07;;;5.35;;
79452;SDS011;68899;52.116;5.404;2024-02-15T06:43:47;12.32;;;5.53;;
79452;SDS011;68899;52.116;5.404;2024-02-15T06:46:14;7.10;;;5.10;;
79452;SDS011;68899;52.116;5.404;2024-02-15T06:48:43;9.95;;;5.32;;
79452;SDS011;68899;52.116;5.404;2024-02-15T06:51:14;10.55;;;6.10;;
79452;SDS011;68899;52.116;5.404;2024-02-15T06:53:42;11.48;;;5.95;;
79452;SDS011;68899;52.116;5.404;2024-02-15T06:56:09;11.05;;;5.45;;
79452;SDS011;68899;52.116;5.404;2024-02-15T06:58:37;11.82;;;6.85;;
79452;SDS011;68899;52.116;5.404;2024-02-15T07:01:07;10.88;;;5.50;;
79452;SDS011;68899;52.116;5.404;2024-02-15T07:03:34;9.80;;;6.28;;
79452;SDS011;68899;52.116;5.404;2024-02-15T07:06:01;9.77;;;5.38;;
79452;SDS011;68899;52.116;5.404;2024-02-15T07:08:29;11.23;;;4.88;;
79452;SDS011;68899;52.116;5.404;2024-02-15T07:10:58;10.10;;;5.65;;
79452;SDS011;68899;52.116;5.404;2024-02-15T07:13:25;7.75;;;5.25;;
79452;SDS011;68899;52.116;5.404;2024-02-15T07:15:53;9.68;;;5.22;;
79452;SDS011;68899;52.116;5.404;2024-02-15T07:18:19;9.73;;;6.07;;
79452;SDS011;68899;52.116;5.404;2024-02-15T07:20:54;11.07;;;5.13;;
79452;SDS011;68899;52.116;5.404;2024-02-15T07:23:23;8.82;;;5.32;;
79452;SDS011;68899;52.116;5.404;2024-02-15T07:25:50;9.13;;;4.75;;
79452;SDS011;68899;52.116;5.404;2024-02-15T07:28:20;7.53;;;4.93;;
79452;SDS011;68899;52.116;5.404;2024-02-15T07:30:47;8.50;;;4.68;;
79452;SDS011;68899;52.116;5.404;2024-02-15T07:33:17;8.93;;;5.85;;
79452;SDS011;68899;52.116;5.404;2024-02-15T07:35:44;7.78;;;4.93;;
79452;SDS011;68899;52.116;5.404;2024-02-15T07:38:11;7.28;;;4.82;;
79452;SDS011;68899;52.116;5.404;2024-02-15T07:40:38;7.22;;;4.13;;
79452;SDS011;68899;52.116;5.404;2024-02-15T07:43:06;6.97;;;4.28;;
79452;SDS011;68899;52.116;5.404;2024-02-15T07:45:33;5.75;;;3.92;;
79452;SDS011;68899;52.116;5.404;2024-02-15T07:48:03;6.60;;;3.28;;
79452;SDS011;68899;52.116;5.404;2024-02-15T07:50:31;8.15;;;4.72;;
79452;SDS011;68899;52.116;5.404;2024-02-15T07:52:58;6.22;;;3.20;;
79452;SDS011;68899;52.116;5.404;2024-02-15T07:55:24;6.10;;;3.38;;
79452;SDS011;68899;52.116;5.404;2024-02-15T07:57:51;6.72;;;3.15;;
79452;SDS011;68899;52.116;5.404;2024-02-15T08:00:19;7.32;;;4.22;;
79452;SDS011;68899;52.116;5.404;2024-02-15T08:02:46;5.70;;;3.13;;
79452;SDS011;68899;52.116;5.404;2024-02-15T08:05:13;6.35;;;3.05;;
79452;SDS011;68899;52.116;5.404;2024-02-15T08:07:41;5.68;;;2.90;;
79452;SDS011;68899;52.116;5.404;2024-02-15T08:10:10;4.13;;;2.25;;
79452;SDS011;68899;52.116;5.404;2024-02-15T08:12:44;5.25;;;2.90;;
79452;SDS011;68899;52.116;5.404;2024-02-15T08:15:12;4.55;;;2.35;;
79452;SDS011;68899;52.116;5.404;2024-02-15T08:17:39;4.82;;;2.70;;
79452;SDS011;68899;52.116;5.404;2024-02-15T08:20:07;4.22;;;2.22;;
79452;SDS011;68899;52.116;5.404;2024-02-15T08:22:36;4.00;;;1.80;;
79452;SDS011;68899;52.116;5.404;2024-02-15T08:25:11;3.90;;;2.30;;
79452;SDS011;68899;52.116;5.404;2024-02-15T08:27:39;5.72;;;2.33;;
79452;SDS011;68899;52.116;5.404;2024-02-15T08:30:11;4.88;;;2.55;;
79452;SDS011;68899;52.116;5.404;2024-02-15T08:32:39;4.78;;;3.35;;
79452;SDS011;68899;52.116;5.404;2024-02-15T08:35:09;4.50;;;2.10;;
79452;SDS011;68899;52.116;5.404;2024-02-15T08:37:37;3.67;;;1.95;;
79452;SDS011;68899;52.116;5.404;2024-02-15T08:40:05;3.80;;;2.08;;
79452;SDS011;68899;52.116;5.404;2024-02-15T08:42:40;3.08;;;1.70;;
79452;SDS011;68899;52.116;5.404;2024-02-15T08:45:07;2.88;;;1.45;;
79452;SDS011;68899;52.116;5.404;2024-02-15T08:47:39;3.22;;;1.50;;
79452;SDS011;68899;52.116;5.404;2024-02-15T08:50:09;3.10;;;1.65;;
79452;SDS011;68899;52.116;5.404;2024-02-15T08:52:39;4.55;;;1.48;;
79452;SDS011;68899;52.116;5.404;2024-02-15T08:55:07;3.40;;;1.33;;
79452;SDS011;68899;52.116;5.404;2024-02-15T08:57:41;2.80;;;1.48;;
79452;SDS011;68899;52.116;5.404;2024-02-15T09:00:10;3.33;;;1.48;;
79452;SDS011;68899;52.116;5.404;2024-02-15T09:02:41;3.83;;;1.90;;
79452;SDS011;68899;52.116;5.404;2024-02-15T09:05:11;2.88;;;1.10;;
79452;SDS011;68899;52.116;5.404;2024-02-15T09:07:41;2.58;;;1.15;;
79452;SDS011;68899;52.116;5.404;2024-02-15T09:10:09;3.13;;;1.30;;
79452;SDS011;68899;52.116;5.404;2024-02-15T09:12:37;2.40;;;0.82;;
79452;SDS011;68899;52.116;5.404;2024-02-15T09:15:07;3.35;;;1.20;;
79452;SDS011;68899;52.116;5.404;2024-02-15T09:17:35;3.25;;;1.17;;
79452;SDS011;68899;52.116;5.404;2024-02-15T09:20:09;3.40;;;0.90;;
79452;SDS011;68899;52.116;5.404;2024-02-15T09:22:49;4.80;;;1.92;;
79452;SDS011;68899;52.116;5.404;2024-02-15T09:25:17;2.53;;;1.10;;
79452;SDS011;68899;52.116;5.404;2024-02-15T09:27:45;4.22;;;1.48;;
79452;SDS011;68899;52.116;5.404;2024-02-15T09:30:12;4.32;;;1.55;;
79452;SDS011;68899;52.116;5.404;2024-02-15T09:32:39;8.13;;;3.63;;
79452;SDS011;68899;52.116;5.404;2024-02-15T09:35:06;4.18;;;1.65;;
79452;SDS011;68899;52.116;5.404;2024-02-15T09:37:35;3.95;;;1.70;;
79452;SDS011;68899;52.116;5.404;2024-02-15T09:40:02;5.10;;;2.00;;
79452;SDS011;68899;52.116;5.404;2024-02-15T09:42:33;3.42;;;1.95;;
79452;SDS011;68899;52.116;5.404;2024-02-15T09:45:01;4.40;;;1.67;;
79452;SDS011;68899;52.116;5.404;2024-02-15T09:47:30;5.35;;;2.20;;
79452;SDS011;68899;52.116;5.404;2024-02-15T09:50:02;5.65;;;1.77;;
79452;SDS011;68899;52.116;5.404;2024-02-15T09:52:32;5.68;;;1.98;;
79452;SDS011;68899;52.116;5.404;2024-02-15T09:55:02;4.50;;;1.40;;
79452;SDS011;68899;52.116;5.404;2024-02-15T09:57:30;6.00;;;1.85;;
79452;SDS011;68899;52.116;5.404;2024-02-15T10:00:04;5.10;;;2.72;;
79452;SDS011;68899;52.116;5.404;2024-02-15T10:02:37;6.00;;;2.13;;
79452;SDS011;68899;52.116;5.404;2024-02-15T10:05:05;5.78;;;1.88;;
79452;SDS011;68899;52.116;5.404;2024-02-15T10:07:41;6.53;;;2.00;;
79452;SDS011;68899;52.116;5.404;2024-02-15T10:10:14;3.60;;;2.05;;
79452;SDS011;68899;52.116;5.404;2024-02-15T10:12:52;5.28;;;2.13;;
79452;SDS011;68899;52.116;5.404;2024-02-15T10:15:39;4.93;;;1.83;;
79452;SDS011;68899;52.116;5.404;2024-02-15T10:18:07;8.88;;;2.65;;
79452;SDS011;68899;52.116;5.404;2024-02-15T10:20:40;4.78;;;2.65;;
79452;SDS011;68899;52.116;5.404;2024-02-15T10:23:11;5.05;;;2.75;;
79452;SDS011;68899;52.116;5.404;2024-02-15T10:25:39;4.18;;;2.00;;
79452;SDS011;68899;52.116;5.404;2024-02-15T10:28:08;5.03;;;1.85;;
79452;SDS011;68899;52.116;5.404;2024-02-15T10:30:39;5.72;;;2.53;;
79452;SDS011;68899;52.116;5.404;2024-02-15T10:33:09;6.25;;;2.20;;
79452;SDS011;68899;52.116;5.404;2024-02-15T10:35:37;8.25;;;2.28;;
79452;SDS011;68899;52.116;5.404;2024-02-15T10:38:07;6.25;;;2.25;;
79452;SDS011;68899;52.116;5.404;2024-02-15T10:40:37;5.70;;;2.10;;
79452;SDS011;68899;52.116;5.404;2024-02-15T10:43:04;6.85;;;2.55;;
79452;SDS011;68899;52.116;5.404;2024-02-15T10:45:35;4.65;;;2.30;;
79452;SDS011;68899;52.116;5.404;2024-02-15T10:48:12;6.38;;;2.53;;
79452;SDS011;68899;52.116;5.404;2024-02-15T10:50:40;9.75;;;2.92;;
79452;SDS011;68899;52.116;5.404;2024-02-15T10:53:11;7.32;;;2.15;;
79452;SDS011;68899;52.116;5.404;2024-02-15T10:55:47;5.43;;;2.15;;
79452;SDS011;68899;52.116;5.404;2024-02-15T10:58:19;6.22;;;2.60;;
79452;SDS011;68899;52.116;5.404;2024-02-15T11:00:49;5.75;;;2.60;;
79452;SDS011;68899;52.116;5.404;2024-02-15T11:03:19;5.70;;;2.40;;
79452;SDS011;68899;52.116;5.404;2024-02-15T11:05:57;6.40;;;2.38;;
79452;SDS011;68899;52.116;5.404;2024-02-15T11:08:27;7.03;;;2.70;;
79452;SDS011;68899;52.116;5.404;2024-02-15T11:10:53;6.38;;;2.50;;
79452;SDS011;68899;52.116;5.404;2024-02-15T11:13:25;7.05;;;3.05;;
79452;SDS011;68899;52.116;5.404;2024-02-15T11:15:51;7.45;;;3.00;;
79452;SDS011;68899;52.116;5.404;2024-02-15T11:21:12;5.50;;;2.70;;
79452;SDS011;68899;52.116;5.404;2024-02-15T11:23:39;6.28;;;4.22;;
79452;SDS011;68899;52.116;5.404;2024-02-15T11:26:10;7.40;;;3.13;;
79452;SDS011;68899;52.116;5.404;2024-02-15T11:35:14;8.57;;;3.58;;
79452;SDS011;68899;52.116;5.404;2024-02-15T11:40:15;9.35;;;3.85;;
79452;SDS011;68899;52.116;5.404;2024-02-15T11:42:46;10.55;;;3.92;;
79452;SDS011;68899;52.116;5.404;2024-02-15T11:45:13;9.20;;;3.67;;
79452;SDS011;68899;52.116;5.404;2024-02-15T11:47:46;8.98;;;4.53;;
79452;SDS011;68899;52.116;5.404;2024-02-15T11:50:21;12.77;;;4.82;;
79452;SDS011;68899;52.116;5.404;2024-02-15T11:52:49;13.43;;;4.72;;
79452;SDS011;68899;52.116;5.404;2024-02-15T11:55:22;13.15;;;4.25;;
79452;SDS011;68899;52.116;5.404;2024-02-15T12:00:43;9.95;;;3.88;;
79452;SDS011;68899;52.116;5.404;2024-02-15T12:03:28;7.40;;;3.50;;
79452;SDS011;68899;52.116;5.404;2024-02-15T12:06:29;9.88;;;4.63;;
79452;SDS011;68899;52.116;5.404;2024-02-15T12:09:18;8.13;;;4.82;;
79452;SDS011;68899;52.116;5.404;2024-02-15T12:14:50;8.48;;;3.60;;
79452;SDS011;68899;52.116;5.404;2024-02-15T12:17:44;6.43;;;4.40;;
79452;SDS011;68899;52.116;5.404;2024-02-15T12:20:29;7.25;;;4.30;;
79452;SDS011;68899;52.116;5.404;2024-02-15T12:22:55;9.60;;;4.47;;
79452;SDS011;68899;52.116;5.404;2024-02-15T12:25:22;11.90;;;4.50;;
79452;SDS011;68899;52.116;5.404;2024-02-15T12:27:59;6.90;;;3.83;;
79452;SDS011;68899;52.116;5.404;2024-02-15T12:30:26;8.63;;;4.50;;
79452;SDS011;68899;52.116;5.404;2024-02-15T12:33:09;8.23;;;4.68;;
79452;SDS011;68899;52.116;5.404;2024-02-15T12:35:37;10.63;;;4.60;;
79452;SDS011;68899;52.116;5.404;2024-02-15T12:38:04;11.27;;;6.03;;
79452;SDS011;68899;52.116;5.404;2024-02-15T12:40:35;10.80;;;4.75;;
79452;SDS011;68899;52.116;5.404;2024-02-15T12:43:08;6.68;;;5.03;;
79452;SDS011;68899;52.116;5.404;2024-02-15T12:45:36;7.25;;;4.30;;
79452;SDS011;68899;52.116;5.404;2024-02-15T12:48:07;9.65;;;4.15;;
79452;SDS011;68899;52.116;5.404;2024-02-15T12:50:35;10.77;;;4.80;;
79452;SDS011;68899;52.116;5.404;2024-02-15T12:53:02;7.78;;;4.53;;
79452;SDS011;68899;52.116;5.404;2024-02-15T12:55:29;6.38;;;3.72;;
79452;SDS011;68899;52.116;5.404;2024-02-15T12:58:05;8.55;;;4.03;;
79452;SDS011;68899;52.116;5.404;2024-02-15T13:00:41;6.93;;;4.25;;
79452;SDS011;68899;52.116;5.404;2024-02-15T13:03:08;6.50;;;3.25;;
79452;SDS011;68899;52.116;5.404;2024-02-15T13:05:40;9.10;;;3.90;;
79452;SDS011;68899;52.116;5.404;2024-02-15T13:08:07;7.72;;;3.58;;
79452;SDS011;68899;52.116;5.404;2024-02-15T13:10:39;9.15;;;2.80;;
79452;SDS011;68899;52.116;5.404;2024-02-15T13:13:06;7.20;;;2.92;;
79452;SDS011;68899;52.116;5.404;2024-02-15T13:15:36;6.03;;;3.60;;
79452;SDS011;68899;52.116;5.404;2024-02-15T13:18:04;5.30;;;3.05;;
79452;SDS011;68899;52.116;5.404;2024-02-15T13:20:32;6.32;;;3.30;;
79452;SDS011;68899;52.116;5.404;2024-02-15T13:23:07;5.38;;;2.65;;
79452;SDS011;68899;52.116;5.404;2024-02-15T13:25:36;5.53;;;3.20;;
79452;SDS011;68899;52.116;5.404;2024-02-15T13:28:06;3.80;;;1.80;;
79452;SDS011;68899;52.116;5.404;2024-02-15T13:30:35;4.82;;;2.25;;
79452;SDS011;68899;52.116;5.404;2024-02-15T13:33:02;5.90;;;1.70;;
79452;SDS011;68899;52.116;5.404;2024-02-15T13:35:30;7.45;;;1.90;;
79452;SDS011;68899;52.116;5.404;2024-02-15T13:37:56;4.90;;;1.75;;
79452;SDS011;68899;52.116;5.404;2024-02-15T13:40:25;4.22;;;1.70;;
79452;SDS011;68899;52.116;5.404;2024-02-15T13:42:59;5.70;;;2.40;;
79452;SDS011;68899;52.116;5.404;2024-02-15T13:45:31;6.07;;;1.85;;
79452;SDS011;68899;52.116;5.404;2024-02-15T13:48:05;3.47;;;1.95;;
79452;SDS011;68899;52.116;5.404;2024-02-15T13:50:34;6.32;;;1.98;;
79452;SDS011;68899;52.116;5.404;2024-02-15T13:53:02;4.53;;;1.70;;
79452;SDS011;68899;52.116;5.404;2024-02-15T13:55:30;5.75;;;2.22;;
79452;SDS011;68899;52.116;5.404;2024-02-15T13:57:57;7.03;;;1.85;;
79452;SDS011;68899;52.116;5.404;2024-02-15T14:00:24;4.93;;;2.22;;
79452;SDS011;68899;52.116;5.404;2024-02-15T14:03:01;4.53;;;1.60;;
79452;SDS011;68899;52.116;5.404;2024-02-15T14:05:29;8.43;;;2.20;;
79452;SDS011;68899;52.116;5.404;2024-02-15T14:08:01;5.40;;;1.95;;
79452;SDS011;68899;52.116;5.404;2024-02-15T14:10:36;2.88;;;1.70;;
79452;SDS011;68899;52.116;5.404;2024-02-15T14:13:03;5.00;;;1.70;;
79452;SDS011;68899;52.116;5.404;2024-02-15T14:15:35;5.15;;;2.10;;
79452;SDS011;68899;52.116;5.404;2024-02-15T14:18:07;3.88;;;1.88;;
79452;SDS011;68899;52.116;5.404;2024-02-15T14:20:40;9.40;;;2.40;;
79452;SDS011;68899;52.116;5.404;2024-02-15T14:23:10;4.28;;;2.10;;
79452;SDS011;68899;52.116;5.404;2024-02-15T14:25:40;6.22;;;2.17;;
79452;SDS011;68899;52.116;5.404;2024-02-15T14:28:07;5.93;;;2.25;;
79452;SDS011;68899;52.116;5.404;2024-02-15T14:30:35;6.57;;;2.33;;
79452;SDS011;68899;52.116;5.404;2024-02-15T14:33:20;7.82;;;2.38;;
79452;SDS011;68899;52.116;5.404;2024-02-15T14:35:49;4.55;;;2.10;;
79452;SDS011;68899;52.116;5.404;2024-02-15T14:38:19;8.95;;;2.40;;
79452;SDS011;68899;52.116;5.404;2024-02-15T14:40:48;5.95;;;2.25;;
79452;SDS011;68899;52.116;5.404;2024-02-15T14:43:20;6.13;;;2.38;;
79452;SDS011;68899;52.116;5.404;2024-02-15T14:45:48;7.55;;;2.08;;
79452;SDS011;68899;52.116;5.404;2024-02-15T14:48:15;7.95;;;3.45;;
79452;SDS011;68899;52.116;5.404;2024-02-15T14:50:44;5.75;;;2.08;;
79452;SDS011;68899;52.116;5.404;2024-02-15T14:53:14;6.30;;;2.85;;
79452;SDS011;68899;52.116;5.404;2024-02-15T14:55:42;5.65;;;1.88;;
79452;SDS011;68899;52.116;5.404;2024-02-15T14:58:12;6.70;;;2.42;;
79452;SDS011;68899;52.116;5.404;2024-02-15T15:00:40;4.97;;;2.22;;
79452;SDS011;68899;52.116;5.404;2024-02-15T15:03:12;5.15;;;2.53;;
79452;SDS011;68899;52.116;5.404;2024-02-15T15:05:40;7.38;;;3.45;;
79452;SDS011;68899;52.116;5.404;2024-02-15T15:08:26;6.80;;;3.42;;
79452;SDS011;68899;52.116;5.404;2024-02-15T15:11:11;5.05;;;2.30;;
79452;SDS011;68899;52.116;5.404;2024-02-15T15:13:57;4.35;;;3.03;;
79452;SDS011;68899;52.116;5.404;2024-02-15T15:16:24;4.72;;;2.30;;